Time;durP1;ratioP1;P1;durP2;ratioP2;P2;SDS_P1;SDS_P2;PMS_P1;PMS_P2;Temp;Humidity;BMP_temperature;BMP_pressure;BME280_temperature;BME280_humidity;BME280_pressure;Samples;Min_cycle;Max_cycle;Signal;HPM_P1;HPM_P2
2022/12/04 00:02:09;;;;;;;;;;;22.20;27.80;;;;;;5094341;28;19924;-66
2022/12/04 00:04:35;;;;;;;;;;;22.20;27.70;;;;;;5112981;28;19927;-66
2022/12/04 00:07:01;;;;;;;;;;;22.20;27.70;;;;;;5094493;28;19919;-66
2022/12/04 00:09:26;;;;;;;;;;;22.20;27.70;;;;;;5094571;28;19919;-66
2022/12/04 00:11:52;;;;;;;;;;;22.20;27.70;;;;;;5112039;28;19965;-66
2022/12/04 00:14:17;;;;;;;;;;;22.20;27.70;;;;;;5112526;28;19947;-66
2022/12/04 00:16:43;;;;;;;;;;;22.20;27.80;;;;;;5094609;28;20303;-66
2022/12/04 00:19:09;;;;;;;;;;;22.20;27.70;;;;;;5094934;28;20006;-66
2022/12/04 00:21:34;;;;;;;;;;;22.20;27.70;;;;;;5094302;28;19926;-66
2022/12/04 00:24:01;;;;;;;;;;;22.20;27.80;;;;;;5112724;28;19927;-66
2022/12/04 00:26:27;;;;;;;;;;;22.20;27.70;;;;;;5094339;28;20346;-66
2022/12/04 00:28:53;;;;;;;;;;;22.20;27.70;;;;;;5094523;28;19920;-66
2022/12/04 00:31:20;;;;;;;;;;;22.30;27.80;;;;;;5112601;28;20030;-66
2022/12/04 00:33:46;;;;;;;;;;;22.20;27.80;;;;;;5094473;28;19920;-66
2022/12/04 00:36:12;;;;;;;;;;;22.20;27.70;;;;;;5112456;28;19919;-66
2022/12/04 00:38:38;;;;;;;;;;;22.20;27.70;;;;;;5112541;28;20363;-66
2022/12/04 00:41:06;;;;;;;;;;;22.20;27.70;;;;;;5094170;28;19968;-66
2022/12/04 00:43:32;;;;;;;;;;;22.20;27.80;;;;;;5112349;28;20420;-66
2022/12/04 00:45:57;;;;;;;;;;;22.20;27.80;;;;;;5094042;28;19967;-66
2022/12/04 00:48:23;;;;;;;;;;;22.20;27.80;;;;;;5094322;28;20041;-66
2022/12/04 00:50:49;;;;;;;;;;;22.20;27.80;;;;;;5098275;28;19927;-66
2022/12/04 00:53:14;;;;;;;;;;;22.30;27.80;;;;;;5116178;28;19920;-66
2022/12/04 00:55:41;;;;;;;;;;;22.20;27.80;;;;;;5116270;28;19926;-66
2022/12/04 00:58:06;;;;;;;;;;;22.20;27.80;;;;;;5097709;28;20010;-66
2022/12/04 01:00:33;;;;;;;;;;;22.20;27.80;;;;;;5097696;28;20018;-66
2022/12/04 01:02:59;;;;;;;;;;;22.20;27.80;;;;;;5115460;28;19931;-66
2022/12/04 01:05:25;;;;;;;;;;;22.20;27.90;;;;;;5097720;28;19920;-66
2022/12/04 01:07:50;;;;;;;;;;;22.20;27.90;;;;;;5097540;28;19919;-66
2022/12/04 01:10:16;;;;;;;;;;;22.20;27.90;;;;;;5115798;28;20128;-66
2022/12/04 01:12:42;;;;;;;;;;;22.20;27.80;;;;;;5097469;28;19920;-66
2022/12/04 01:15:07;;;;;;;;;;;22.20;27.80;;;;;;5097676;28;19924;-66
2022/12/04 01:17:33;;;;;;;;;;;22.30;27.90;;;;;;5097354;28;19927;-66
2022/12/04 01:19:58;;;;;;;;;;;22.30;27.90;;;;;;5097545;28;19920;-66
2022/12/04 01:22:24;;;;;;;;;;;22.20;27.90;;;;;;5097276;28;19924;-66
2022/12/04 01:24:49;;;;;;;;;;;22.30;27.90;;;;;;5097232;28;19927;-66
2022/12/04 01:27:15;;;;;;;;;;;22.20;27.90;;;;;;5115597;28;19920;-66
2022/12/04 01:29:40;;;;;;;;;;;22.20;27.90;;;;;;5115466;28;20287;-66
2022/12/04 01:32:06;;;;;;;;;;;22.20;27.90;;;;;;5115492;28;20394;-66
2022/12/04 01:34:31;;;;;;;;;;;22.20;27.90;;;;;;5115164;28;19924;-66
2022/12/04 01:36:57;;;;;;;;;;;22.20;27.90;;;;;;5097086;28;19920;-66
2022/12/04 01:39:22;;;;;;;;;;;22.20;27.90;;;;;;5115305;28;19926;-66
2022/12/04 01:41:48;;;;;;;;;;;22.20;27.90;;;;;;5096936;28;19935;-66
2022/12/04 01:44:22;;;;;;;;;;;22.20;27.90;;;;;;5096869;28;19964;-66
2022/12/04 01:46:50;;;;;;;;;;;22.20;27.90;;;;;;5096882;28;19977;-66
2022/12/04 01:49:18;;;;;;;;;;;22.20;27.90;;;;;;5114963;28;19967;-66
2022/12/04 01:51:47;;;;;;;;;;;22.20;27.90;;;;;;5097052;28;20006;-66
2022/12/04 01:54:16;;;;;;;;;;;22.20;27.80;;;;;;5115178;28;19989;-66
2022/12/04 01:56:44;;;;;;;;;;;22.20;27.80;;;;;;5096583;28;19920;-66
2022/12/04 01:59:11;;;;;;;;;;;22.20;27.80;;;;;;5114907;28;19920;-66
2022/12/04 02:01:39;;;;;;;;;;;22.20;27.80;;;;;;5096453;28;19999;-66
2022/12/04 02:04:05;;;;;;;;;;;22.20;27.80;;;;;;5096271;28;19924;-66
2022/12/04 02:06:30;;;;;;;;;;;22.20;27.80;;;;;;5096777;28;19926;-66
2022/12/04 02:08:56;;;;;;;;;;;22.20;27.80;;;;;;5114924;28;19963;-66
2022/12/04 02:14:19;;;;;;;;;;;22.80;28.10;;;;;;5089971;28;19918;-66
2022/12/04 02:19:41;;;;;;;;;;;22.20;27.90;;;;;;5110516;27;19918;-66
2022/12/04 02:22:13;;;;;;;;;;;22.30;27.90;;;;;;5108870;28;19920;-66
2022/12/04 02:30:02;;;;;;;;;;;22.30;27.90;;;;;;5127943;27;1857289;-66
2022/12/04 02:32:34;;;;;;;;;;;22.20;27.80;;;;;;5158065;27;19926;-66
2022/12/04 02:35:04;;;;;;;;;;;22.20;27.80;;;;;;5153629;27;19961;-66
2022/12/04 02:42:53;;;;;;;;;;;22.30;27.90;;;;;;5110161;27;19912;-66
2022/12/04 02:45:20;;;;;;;;;;;22.30;27.80;;;;;;5108910;28;20010;-66
2022/12/04 02:47:46;;;;;;;;;;;22.20;27.90;;;;;;5108857;28;19920;-66
2022/12/04 02:50:13;;;;;;;;;;;22.20;27.90;;;;;;5108825;28;20051;-66
2022/12/04 02:52:42;;;;;;;;;;;22.20;27.90;;;;;;5108075;28;19998;-66
2022/12/04 02:55:17;;;;;;;;;;;22.20;27.90;;;;;;5108550;28;20376;-66
2022/12/04 02:57:44;;;;;;;;;;;22.20;27.90;;;;;;5108561;28;19946;-66
2022/12/04 03:00:10;;;;;;;;;;;22.70;28.10;;;;;;5108836;28;19920;-66
2022/12/04 03:02:39;;;;;;;;;;;22.20;28.00;;;;;;5109794;28;19977;-66
2022/12/04 03:05:09;;;;;;;;;;;22.20;28.00;;;;;;5108893;28;19920;-66
2022/12/04 03:07:53;;;;;;;;;;;22.20;28.00;;;;;;5109784;28;19920;-66
2022/12/04 03:10:29;;;;;;;;;;;22.20;27.90;;;;;;5108480;28;19920;-66
2022/12/04 03:12:56;;;;;;;;;;;22.20;28.00;;;;;;5109646;28;19920;-66
2022/12/04 03:15:26;;;;;;;;;;;22.20;28.00;;;;;;5109589;28;19924;-66
2022/12/04 03:18:00;;;;;;;;;;;22.20;27.90;;;;;;5109601;28;19931;-66
2022/12/04 03:20:26;;;;;;;;;;;22.20;27.90;;;;;;5109661;28;20363;-66
2022/12/04 03:22:55;;;;;;;;;;;22.20;27.90;;;;;;5108537;28;20007;-66
2022/12/04 03:25:25;;;;;;;;;;;22.30;27.90;;;;;;5108225;28;19920;-66
2022/12/04 03:27:53;;;;;;;;;;;22.20;27.90;;;;;;5107710;28;19927;-66
2022/12/04 03:30:20;;;;;;;;;;;22.20;27.90;;;;;;5109288;28;19931;-66
2022/12/04 03:35:31;;;;;;;;;;;22.20;28.00;;;;;;5089876;28;19919;-66
2022/12/04 03:38:00;;;;;;;;;;;22.20;28.00;;;;;;5088815;28;20334;-66
2022/12/04 03:40:31;;;;;;;;;;;22.10;27.90;;;;;;5088891;28;19928;-66
2022/12/04 03:42:59;;;;;;;;;;;22.10;27.90;;;;;;5088985;28;19998;-66
2022/12/04 03:45:29;;;;;;;;;;;22.20;28.00;;;;;;5088336;28;20011;-66
2022/12/04 03:50:38;;;;;;;;;;;22.10;28.00;;;;;;5089927;28;19913;-66
2022/12/04 03:53:07;;;;;;;;;;;22.20;28.00;;;;;;5088592;28;19921;-66
2022/12/04 03:55:38;;;;;;;;;;;22.20;28.00;;;;;;5090096;28;19920;-66
2022/12/04 03:58:06;;;;;;;;;;;22.20;28.00;;;;;;5088536;28;20364;-66
2022/12/04 04:00:32;;;;;;;;;;;22.20;28.00;;;;;;5105669;28;19920;-66
2022/12/04 04:02:59;;;;;;;;;;;22.20;28.00;;;;;;5089658;28;19927;-66
2022/12/04 04:05:26;;;;;;;;;;;22.20;28.00;;;;;;5089703;28;20287;-66
2022/12/04 04:07:55;;;;;;;;;;;22.20;28.60;;;;;;5087949;28;20343;-66
2022/12/04 04:10:23;;;;;;;;;;;22.10;28.00;;;;;;5088062;28;19928;-66
2022/12/04 04:24:17;;;;;;;;;;;22.20;28.00;;;;;;5089091;28;20316;-66
2022/12/04 04:26:44;;;;;;;;;;;22.20;28.00;;;;;;5073134;28;19973;-66
2022/12/04 04:29:10;;;;;;;;;;;22.20;28.00;;;;;;5087877;28;19932;-66
2022/12/04 04:31:39;;;;;;;;;;;22.20;28.00;;;;;;5089283;28;19921;-66
2022/12/04 04:34:13;;;;;;;;;;;22.20;28.00;;;;;;5089145;28;19931;-66
2022/12/04 04:36:45;;;;;;;;;;;22.20;28.00;;;;;;5087765;28;19945;-66
2022/12/04 04:39:20;;;;;;;;;;;22.20;28.00;;;;;;5088971;28;19928;-66
2022/12/04 04:41:49;;;;;;;;;;;22.20;28.00;;;;;;5087943;28;19920;-66
2022/12/04 04:44:18;;;;;;;;;;;22.20;28.10;;;;;;5089163;28;19982;-66
2022/12/04 04:46:48;;;;;;;;;;;22.20;28.10;;;;;;5089017;28;19926;-66
2022/12/04 04:49:14;;;;;;;;;;;22.20;28.10;;;;;;5087193;28;19990;-66
2022/12/04 04:51:41;;;;;;;;;;;22.20;28.10;;;;;;5088737;28;19920;-66
2022/12/04 04:54:08;;;;;;;;;;;22.20;28.00;;;;;;5087746;28;19925;-66
2022/12/04 04:56:42;;;;;;;;;;;22.20;28.10;;;;;;5087648;28;19966;-66
2022/12/04 04:59:08;;;;;;;;;;;22.20;28.10;;;;;;5087513;28;20392;-66
2022/12/04 05:01:34;;;;;;;;;;;22.10;28.00;;;;;;5075866;28;19921;-66
2022/12/04 05:04:00;;;;;;;;;;;22.10;28.10;;;;;;5075045;28;20384;-66
2022/12/04 05:06:25;;;;;;;;;;;22.10;28.10;;;;;;5073949;28;19947;-66
2022/12/04 05:08:51;;;;;;;;;;;22.20;28.10;;;;;;5073594;28;19925;-66
2022/12/04 05:11:16;;;;;;;;;;;22.10;28.10;;;;;;5073588;28;19921;-66
2022/12/04 05:13:42;;;;;;;;;;;22.10;28.10;;;;;;5075042;28;19952;-66
2022/12/04 05:16:09;;;;;;;;;;;22.20;28.10;;;;;;5074736;28;20490;-66
2022/12/04 05:18:35;;;;;;;;;;;22.20;28.10;;;;;;5073475;28;19920;-66
2022/12/04 05:21:05;;;;;;;;;;;22.20;28.10;;;;;;5073795;28;19927;-66
2022/12/04 05:23:30;;;;;;;;;;;22.20;28.10;;;;;;5074558;28;19920;-66
2022/12/04 05:25:58;;;;;;;;;;;22.20;28.10;;;;;;5074816;28;19921;-66
2022/12/04 05:28:23;;;;;;;;;;;22.20;28.10;;;;;;5074403;28;20384;-66
2022/12/04 05:30:58;;;;;;;;;;;22.20;28.70;;;;;;5074571;28;19935;-66
2022/12/04 05:33:24;;;;;;;;;;;22.20;28.10;;;;;;5073800;28;19955;-66
2022/12/04 05:36:06;;;;;;;;;;;22.20;28.10;;;;;;5074499;28;20327;-66
2022/12/04 05:38:31;;;;;;;;;;;22.20;28.00;;;;;;5073064;28;19920;-66
2022/12/04 05:40:57;;;;;;;;;;;22.20;28.00;;;;;;5074539;28;19942;-66
2022/12/04 05:43:23;;;;;;;;;;;22.20;28.10;;;;;;5073373;28;20097;-66
2022/12/04 05:45:48;;;;;;;;;;;22.20;28.10;;;;;;5073599;28;20456;-66
2022/12/04 05:48:14;;;;;;;;;;;22.20;28.00;;;;;;5074677;28;19920;-66
2022/12/04 05:50:39;;;;;;;;;;;22.20;28.10;;;;;;5076249;28;19928;-66
2022/12/04 05:53:05;;;;;;;;;;;22.20;28.10;;;;;;5076315;28;19927;-66
2022/12/04 05:55:30;;;;;;;;;;;22.20;28.10;;;;;;5094505;28;20291;-65
2022/12/04 05:57:56;;;;;;;;;;;22.20;28.10;;;;;;5094160;28;20387;-66
2022/12/04 06:00:22;;;;;;;;;;;22.20;28.10;;;;;;5076060;28;19920;-66
2022/12/04 06:02:47;;;;;;;;;;;22.20;28.10;;;;;;5076211;28;19998;-66
2022/12/04 06:05:13;;;;;;;;;;;22.20;28.10;;;;;;5094134;28;19927;-66
2022/12/04 06:07:38;;;;;;;;;;;22.20;28.10;;;;;;5076121;28;20378;-66
2022/12/04 06:10:05;;;;;;;;;;;22.10;28.10;;;;;;5075759;28;19920;-66
2022/12/04 06:12:30;;;;;;;;;;;22.10;28.10;;;;;;5074745;28;19928;-66
2022/12/04 06:14:56;;;;;;;;;;;22.00;28.00;;;;;;5075984;28;19924;-66
2022/12/04 06:17:21;;;;;;;;;;;22.10;28.10;;;;;;5093857;28;19920;-66
2022/12/04 06:19:47;;;;;;;;;;;22.10;28.10;;;;;;5093744;28;19973;-66
2022/12/04 06:22:12;;;;;;;;;;;22.20;28.10;;;;;;5075610;28;19924;-66
2022/12/04 06:24:38;;;;;;;;;;;22.20;28.10;;;;;;5075731;28;19924;-66
2022/12/04 06:27:03;;;;;;;;;;;22.20;28.10;;;;;;5075510;28;20375;-66
2022/12/04 06:29:29;;;;;;;;;;;22.20;28.10;;;;;;5093476;28;19920;-66
2022/12/04 06:31:54;;;;;;;;;;;22.20;28.10;;;;;;5075800;28;19924;-66
2022/12/04 06:34:20;;;;;;;;;;;22.20;28.10;;;;;;5075322;28;19931;-66
2022/12/04 06:36:45;;;;;;;;;;;22.20;28.10;;;;;;5075305;28;19931;-66
2022/12/04 06:39:11;;;;;;;;;;;22.20;28.10;;;;;;5075099;28;19920;-66
2022/12/04 06:41:37;;;;;;;;;;;22.20;28.10;;;;;;5072273;28;19973;-66
2022/12/04 06:44:02;;;;;;;;;;;22.20;28.10;;;;;;5073926;28;19920;-65
2022/12/04 06:46:29;;;;;;;;;;;22.20;28.10;;;;;;5092182;28;19963;-66
2022/12/04 06:48:55;;;;;;;;;;;22.20;28.10;;;;;;5092890;28;20379;-66
2022/12/04 06:51:22;;;;;;;;;;;22.20;28.10;;;;;;5074864;28;19950;-66
2022/12/04 06:53:48;;;;;;;;;;;22.20;28.10;;;;;;5075228;28;19924;-66
2022/12/04 06:56:16;;;;;;;;;;;22.20;28.10;;;;;;5093183;28;19931;-66
2022/12/04 06:58:43;;;;;;;;;;;22.30;28.10;;;;;;5092645;28;20324;-66
2022/12/04 07:01:10;;;;;;;;;;;22.20;28.10;;;;;;5093058;28;19928;-66
2022/12/04 07:03:36;;;;;;;;;;;22.20;28.10;;;;;;5075200;28;20358;-66
2022/12/04 07:06:22;;;;;;;;;;;22.20;28.10;;;;;;5075318;28;20015;-66
2022/12/04 07:08:49;;;;;;;;;;;22.20;28.10;;;;;;5092702;28;19924;-66
2022/12/04 07:11:14;;;;;;;;;;;22.20;28.10;;;;;;5092106;28;20401;-66
2022/12/04 07:13:40;;;;;;;;;;;22.10;28.10;;;;;;5074963;28;19920;-66
2022/12/04 07:16:07;;;;;;;;;;;22.20;28.20;;;;;;5092882;28;19927;-66
2022/12/04 07:18:32;;;;;;;;;;;22.20;28.20;;;;;;5092809;28;19920;-66
2022/12/04 07:20:58;;;;;;;;;;;22.10;28.10;;;;;;5074782;28;20015;-66
2022/12/04 07:23:24;;;;;;;;;;;22.20;28.20;;;;;;5092463;28;19924;-66
2022/12/04 07:25:49;;;;;;;;;;;22.20;28.20;;;;;;5074151;28;19920;-66
2022/12/04 07:28:15;;;;;;;;;;;22.10;28.10;;;;;;5074260;28;19963;-66
2022/12/04 07:30:41;;;;;;;;;;;22.20;28.20;;;;;;5074441;28;19939;-66
2022/12/04 07:33:06;;;;;;;;;;;22.20;28.20;;;;;;5092698;28;19946;-66
2022/12/04 07:35:32;;;;;;;;;;;22.20;28.10;;;;;;5074423;28;19920;-66
2022/12/04 07:37:57;;;;;;;;;;;22.20;28.20;;;;;;5092514;28;19927;-67
2022/12/04 07:40:23;;;;;;;;;;;22.20;28.20;;;;;;5074263;28;20007;-66
2022/12/04 07:42:49;;;;;;;;;;;22.20;28.20;;;;;;5074670;28;20007;-66
2022/12/04 07:45:14;;;;;;;;;;;22.20;28.20;;;;;;5091741;28;19920;-66
2022/12/04 07:47:40;;;;;;;;;;;22.20;28.20;;;;;;5074636;28;19920;-66
2022/12/04 07:50:06;;;;;;;;;;;22.20;28.20;;;;;;5092148;28;19928;-66
2022/12/04 07:52:35;;;;;;;;;;;22.20;28.20;;;;;;5074134;28;20445;-66
2022/12/04 07:55:01;;;;;;;;;;;22.20;28.20;;;;;;5074313;28;19920;-66
2022/12/04 07:57:27;;;;;;;;;;;22.10;28.20;;;;;;5074453;28;20061;-66
2022/12/04 07:59:52;;;;;;;;;;;22.20;28.30;;;;;;5092333;28;19920;-66
2022/12/04 08:02:19;;;;;;;;;;;22.20;28.20;;;;;;5074649;28;19954;-66
2022/12/04 08:04:45;;;;;;;;;;;22.20;28.30;;;;;;5074573;28;20295;-66
2022/12/04 08:07:10;;;;;;;;;;;22.20;28.30;;;;;;5092199;28;19920;-66
2022/12/04 08:09:36;;;;;;;;;;;22.20;28.30;;;;;;5092120;28;19935;-66
2022/12/04 08:12:02;;;;;;;;;;;22.20;28.30;;;;;;5074307;28;19920;-66
2022/12/04 08:14:28;;;;;;;;;;;22.20;28.30;;;;;;5092352;28;19927;-66
2022/12/04 08:16:53;;;;;;;;;;;22.20;28.30;;;;;;5092205;28;20286;-66
2022/12/04 08:19:19;;;;;;;;;;;22.20;28.30;;;;;;5074055;28;19927;-66
2022/12/04 08:21:45;;;;;;;;;;;22.20;28.30;;;;;;5092168;28;19926;-66
2022/12/04 08:24:10;;;;;;;;;;;22.20;28.30;;;;;;5074150;28;19920;-66
2022/12/04 08:26:39;;;;;;;;;;;22.20;28.30;;;;;;5092234;28;19931;-66
2022/12/04 08:29:04;;;;;;;;;;;22.20;28.30;;;;;;5073797;28;19931;-65
2022/12/04 08:31:31;;;;;;;;;;;22.30;28.30;;;;;;5092015;28;19920;-66
2022/12/04 08:33:57;;;;;;;;;;;22.30;28.30;;;;;;5092152;28;20268;-66
2022/12/04 08:36:23;;;;;;;;;;;22.20;28.30;;;;;;5094251;28;20509;-66
2022/12/04 08:38:49;;;;;;;;;;;22.20;28.30;;;;;;5077500;28;20158;-66
2022/12/04 08:41:16;;;;;;;;;;;22.20;28.40;;;;;;5077624;28;20391;-65
2022/12/04 08:43:42;;;;;;;;;;;22.20;28.40;;;;;;5077962;28;20010;-66
2022/12/04 08:46:09;;;;;;;;;;;22.20;28.40;;;;;;5077497;28;20452;-66
2022/12/04 08:48:35;;;;;;;;;;;22.20;28.40;;;;;;5095527;28;20406;-65
2022/12/04 08:51:02;;;;;;;;;;;22.20;28.40;;;;;;5095334;28;19924;-66
2022/12/04 08:53:29;;;;;;;;;;;22.20;28.50;;;;;;5095318;28;20019;-67
2022/12/04 08:55:54;;;;;;;;;;;22.20;28.50;;;;;;5077389;28;19920;-66
2022/12/04 08:58:20;;;;;;;;;;;22.10;28.40;;;;;;5077149;28;19931;-66
2022/12/04 09:00:46;;;;;;;;;;;22.20;28.40;;;;;;5095291;28;19924;-66
2022/12/04 09:03:12;;;;;;;;;;;22.20;28.50;;;;;;5076911;28;19920;-66
2022/12/04 09:05:38;;;;;;;;;;;22.20;28.50;;;;;;5074679;28;20012;-65
2022/12/04 09:08:03;;;;;;;;;;;22.20;28.50;;;;;;5074976;28;20400;-66
2022/12/04 09:10:29;;;;;;;;;;;22.20;28.50;;;;;;5057029;28;19975;-66
2022/12/04 09:12:55;;;;;;;;;;;22.10;28.50;;;;;;5074900;28;20338;-66
2022/12/04 09:15:20;;;;;;;;;;;22.20;28.50;;;;;;5056898;28;20380;-66
2022/12/04 09:17:46;;;;;;;;;;;22.20;28.50;;;;;;5074763;28;19924;-66
2022/12/04 09:20:11;;;;;;;;;;;22.20;28.50;;;;;;5057346;28;19927;-66
2022/12/04 09:22:37;;;;;;;;;;;22.20;28.50;;;;;;5074782;28;20303;-66
2022/12/04 09:25:04;;;;;;;;;;;22.20;28.50;;;;;;5056628;28;20391;-66
2022/12/04 09:27:34;;;;;;;;;;;22.20;28.50;;;;;;5056930;28;19920;-65
2022/12/04 09:29:59;;;;;;;;;;;22.20;28.40;;;;;;5074618;28;19924;-66
2022/12/04 09:32:25;;;;;;;;;;;22.20;28.40;;;;;;5074708;28;20376;-66
2022/12/04 09:34:50;;;;;;;;;;;22.20;28.40;;;;;;5074738;28;20379;-65
2022/12/04 09:37:17;;;;;;;;;;;22.20;28.50;;;;;;5074418;28;20288;-66
2022/12/04 09:39:42;;;;;;;;;;;22.20;28.50;;;;;;5056282;28;19925;-66
2022/12/04 09:42:28;;;;;;;;;;;22.20;28.50;;;;;;5074319;28;19929;-66
2022/12/04 09:47:42;;;;;;;;;;;22.20;28.40;;;;;;5110046;27;19916;-65
2022/12/04 09:52:55;;;;;;;;;;;22.20;28.40;;;;;;5089930;28;20364;-66
2022/12/04 09:58:05;;;;;;;;;;;22.20;28.50;;;;;;5110286;27;19912;-65
2022/12/04 10:00:35;;;;;;;;;;;22.20;28.50;;;;;;5110566;28;19920;-66
2022/12/04 10:03:02;;;;;;;;;;;22.20;28.50;;;;;;5091871;28;19919;-65
2022/12/04 10:13:50;;;;;;;;;;;22.20;28.60;;;;;;5089956;28;19916;-65
2022/12/04 10:16:20;;;;;;;;;;;22.20;28.60;;;;;;5088601;28;20319;-65
2022/12/04 10:18:56;;;;;;;;;;;22.30;28.60;;;;;;5089979;28;20276;-66
2022/12/04 10:24:20;;;;;;;;;;;22.30;28.60;;;;;;5127612;27;1865562;-66
2022/12/04 10:26:47;;;;;;;;;;;22.20;28.60;;;;;;5174071;27;19919;-66
2022/12/04 10:29:17;;;;;;;;;;;22.30;28.60;;;;;;5174837;27;19940;-66
2022/12/04 10:31:43;;;;;;;;;;;22.30;28.60;;;;;;5174627;27;19919;-66
2022/12/04 10:34:18;;;;;;;;;;;22.20;28.60;;;;;;5174273;27;20397;-65
2022/12/04 10:36:47;;;;;;;;;;;22.30;28.60;;;;;;5174230;27;19926;-66
2022/12/04 10:39:17;;;;;;;;;;;22.30;28.60;;;;;;5174523;27;19966;-66
2022/12/04 10:41:51;;;;;;;;;;;22.30;28.60;;;;;;5173990;27;19966;-66
2022/12/04 10:44:18;;;;;;;;;;;22.30;28.60;;;;;;5180961;27;20312;-66
2022/12/04 10:46:44;;;;;;;;;;;22.30;28.60;;;;;;5152292;27;19926;-66
2022/12/04 10:49:13;;;;;;;;;;;22.30;29.20;;;;;;5153407;27;19947;-65
2022/12/04 10:51:40;;;;;;;;;;;22.30;28.70;;;;;;5153499;27;19942;-66
2022/12/04 10:54:14;;;;;;;;;;;22.30;28.60;;;;;;5152979;27;20293;-66
2022/12/04 10:56:49;;;;;;;;;;;22.30;28.60;;;;;;5171665;27;19919;-66
2022/12/04 10:59:14;;;;;;;;;;;22.60;28.80;;;;;;5171577;27;19933;-66
2022/12/04 11:01:40;;;;;;;;;;;22.30;28.70;;;;;;5153065;27;20370;-66
2022/12/04 11:04:09;;;;;;;;;;;22.20;28.60;;;;;;5171646;27;19919;-65
2022/12/04 11:06:34;;;;;;;;;;;22.30;28.70;;;;;;5153010;27;19930;-65
2022/12/04 11:09:01;;;;;;;;;;;22.30;28.70;;;;;;5153088;27;20006;-66
2022/12/04 11:11:31;;;;;;;;;;;22.20;28.70;;;;;;5171417;27;19919;-65
2022/12/04 11:14:01;;;;;;;;;;;22.20;28.70;;;;;;5152671;27;20002;-65
2022/12/04 11:19:18;;;;;;;;;;;22.30;28.70;;;;;;5127820;27;1854594;-65
2022/12/04 11:21:44;;;;;;;;;;;22.30;28.70;;;;;;5174720;27;19976;-65
2022/12/04 11:24:28;;;;;;;;;;;22.30;28.70;;;;;;5167472;27;20449;-66
2022/12/04 11:26:54;;;;;;;;;;;22.20;28.60;;;;;;5153513;27;19926;-65
2022/12/04 11:29:22;;;;;;;;;;;22.30;28.70;;;;;;5153822;27;20179;-65
2022/12/04 11:31:49;;;;;;;;;;;22.30;28.70;;;;;;5172034;27;19919;-66
2022/12/04 11:34:19;;;;;;;;;;;22.30;28.80;;;;;;5153633;27;19926;-66
2022/12/04 11:36:49;;;;;;;;;;;22.20;28.80;;;;;;5153233;27;20374;-66
2022/12/04 11:39:33;;;;;;;;;;;22.20;28.80;;;;;;5171836;27;20385;-65
2022/12/04 11:42:01;;;;;;;;;;;22.20;28.80;;;;;;5172068;27;19926;-66
2022/12/04 11:44:28;;;;;;;;;;;22.10;28.80;;;;;;5171405;27;19922;-65
2022/12/04 11:46:55;;;;;;;;;;;22.20;28.80;;;;;;5171642;27;20317;-66
2022/12/04 11:49:21;;;;;;;;;;;22.20;28.80;;;;;;5153027;27;19926;-66
2022/12/04 11:51:54;;;;;;;;;;;22.20;28.80;;;;;;5171673;27;19923;-66
2022/12/04 11:57:20;;;;;;;;;;;22.20;28.80;;;;;;5089839;28;19913;-66
2022/12/04 12:05:26;;;;;;;;;;;22.30;28.80;;;;;;5110240;27;19945;-65
2022/12/04 12:08:07;;;;;;;;;;;22.20;28.70;;;;;;5091865;28;19936;-66
2022/12/04 12:27:16;;;;;;;;;;;22.20;28.70;;;;;;5089853;28;19919;-66
2022/12/04 12:35:27;;;;;;;;;;;22.30;28.70;;;;;;5089864;28;19919;-66
2022/12/04 12:37:54;;;;;;;;;;;22.40;28.70;;;;;;5088654;28;20011;-66
2022/12/04 12:40:25;;;;;;;;;;;22.30;28.70;;;;;;5088694;28;20368;-66
2022/12/04 12:42:54;;;;;;;;;;;22.30;28.70;;;;;;5088887;28;19920;-66
2022/12/04 12:45:25;;;;;;;;;;;22.30;28.80;;;;;;5088518;28;19920;-66
2022/12/04 12:47:52;;;;;;;;;;;22.30;28.70;;;;;;5088612;28;20003;-65
2022/12/04 12:50:23;;;;;;;;;;;22.30;28.70;;;;;;5088727;28;19921;-66
2022/12/04 12:55:34;;;;;;;;;;;22.30;28.70;;;;;;5110317;27;19912;-67
2022/12/04 13:00:43;;;;;;;;;;;22.30;28.70;;;;;;5110488;27;19912;-66
2022/12/04 13:05:52;;;;;;;;;;;22.30;28.70;;;;;;5089653;28;20208;-66
2022/12/04 13:11:04;;;;;;;;;;;22.30;28.70;;;;;;5127920;27;1858216;-66
2022/12/04 13:13:32;;;;;;;;;;;22.20;28.70;;;;;;5174438;27;19969;-65
2022/12/04 13:16:04;;;;;;;;;;;22.30;28.70;;;;;;5174398;27;20438;-66
2022/12/04 13:18:33;;;;;;;;;;;22.30;28.70;;;;;;5174596;27;19918;-66
2022/12/04 13:21:00;;;;;;;;;;;22.30;28.60;;;;;;5174377;27;19954;-65
2022/12/04 13:26:17;;;;;;;;;;;22.30;28.60;;;;;;5089916;28;20295;-65
2022/12/04 13:31:48;;;;;;;;;;;22.30;28.60;;;;;;5110355;27;19912;-66
2022/12/04 13:37:27;;;;;;;;;;;22.30;28.60;;;;;;5127890;27;1853513;-65
2022/12/04 13:40:08;;;;;;;;;;;22.30;28.60;;;;;;5174100;27;19919;-66
2022/12/04 13:42:34;;;;;;;;;;;22.30;28.60;;;;;;5174297;27;20382;-66
2022/12/04 13:45:05;;;;;;;;;;;22.30;28.60;;;;;;5155091;27;19944;-66
2022/12/04 13:47:32;;;;;;;;;;;22.40;28.70;;;;;;5153312;27;20417;-65
2022/12/04 13:50:07;;;;;;;;;;;22.30;28.70;;;;;;5153680;27;19926;-65
2022/12/04 13:52:39;;;;;;;;;;;22.30;28.70;;;;;;5153399;27;19925;-65
2022/12/04 13:55:24;;;;;;;;;;;22.30;28.70;;;;;;5153131;27;19930;-65
2022/12/04 14:00:43;;;;;;;;;;;22.30;28.80;;;;;;5089910;28;19913;-66
2022/12/04 14:03:24;;;;;;;;;;;22.30;28.70;;;;;;5089909;28;20334;-65
2022/12/04 14:05:50;;;;;;;;;;;22.30;28.70;;;;;;5088915;28;19920;-65
2022/12/04 14:11:00;;;;;;;;;;;22.30;28.70;;;;;;5127418;27;1870032;-66
2022/12/04 14:13:28;;;;;;;;;;;22.30;28.80;;;;;;5174377;27;19926;-66
2022/12/04 14:16:13;;;;;;;;;;;22.30;28.80;;;;;;5174726;27;19919;-65
2022/12/04 14:18:39;;;;;;;;;;;22.30;28.80;;;;;;5192878;27;19922;-66
2022/12/04 14:21:05;;;;;;;;;;;22.30;28.80;;;;;;5174554;27;19923;-66
2022/12/04 14:23:33;;;;;;;;;;;22.30;28.80;;;;;;5193002;27;20014;-66
2022/12/04 14:26:01;;;;;;;;;;;22.30;28.80;;;;;;5174156;27;20366;-66
2022/12/04 14:34:26;;;;;;;;;;;22.30;28.80;;;;;;5090001;28;20261;-65
2022/12/04 14:36:53;;;;;;;;;;;22.30;28.80;;;;;;5088538;28;20380;-65
2022/12/04 14:39:24;;;;;;;;;;;22.30;28.90;;;;;;5088803;28;20335;-65
2022/12/04 14:41:49;;;;;;;;;;;22.30;28.90;;;;;;5087844;28;20291;-65
2022/12/04 14:44:20;;;;;;;;;;;22.30;28.90;;;;;;5086508;28;19928;-66
2022/12/04 14:46:48;;;;;;;;;;;22.30;28.90;;;;;;5084539;28;19926;-65
2022/12/04 14:52:22;;;;;;;;;;;22.20;28.90;;;;;;5110308;27;19912;-65
2022/12/04 14:55:07;;;;;;;;;;;22.30;28.80;;;;;;5108725;28;19966;-66
2022/12/04 14:57:53;;;;;;;;;;;22.30;28.80;;;;;;5108671;28;20413;-65
2022/12/04 15:00:21;;;;;;;;;;;22.30;28.80;;;;;;5108883;28;19969;-66
2022/12/04 15:02:47;;;;;;;;;;;22.30;28.90;;;;;;5108707;28;19920;-65
2022/12/04 15:05:29;;;;;;;;;;;22.30;28.90;;;;;;5108982;28;19920;-65
2022/12/04 15:07:57;;;;;;;;;;;22.30;28.90;;;;;;5109016;28;20321;-66
2022/12/04 15:13:11;;;;;;;;;;;22.30;28.90;;;;;;5108775;28;19947;-66
2022/12/04 15:15:43;;;;;;;;;;;22.30;28.90;;;;;;5091457;28;19967;-66
2022/12/04 15:23:29;;;;;;;;;;;22.30;29.00;;;;;;5090254;28;19913;-66
2022/12/04 15:25:55;;;;;;;;;;;22.40;29.00;;;;;;5088456;28;19927;-65
2022/12/04 15:28:31;;;;;;;;;;;22.30;29.00;;;;;;5088492;28;19924;-66
2022/12/04 15:30:58;;;;;;;;;;;22.30;29.00;;;;;;5088426;28;19927;-65
2022/12/04 15:33:26;;;;;;;;;;;22.40;29.00;;;;;;5088797;28;20008;-66
2022/12/04 15:35:54;;;;;;;;;;;22.30;29.00;;;;;;5088639;28;19928;-66
2022/12/04 15:38:20;;;;;;;;;;;22.30;29.00;;;;;;5089599;28;20326;-66
2022/12/04 15:40:55;;;;;;;;;;;22.30;29.00;;;;;;5105163;28;19921;-66
2022/12/04 15:43:25;;;;;;;;;;;22.30;29.00;;;;;;5087786;28;19924;-66
2022/12/04 15:45:51;;;;;;;;;;;22.30;29.00;;;;;;5088175;28;20003;-66
2022/12/04 15:48:25;;;;;;;;;;;22.30;29.00;;;;;;5089473;28;19920;-65
2022/12/04 15:51:00;;;;;;;;;;;22.30;29.00;;;;;;5089338;28;19921;-66
2022/12/04 15:53:27;;;;;;;;;;;22.30;29.00;;;;;;5088233;28;19943;-65
2022/12/04 15:55:53;;;;;;;;;;;22.30;29.60;;;;;;5089284;28;19921;-66
2022/12/04 15:58:25;;;;;;;;;;;22.30;29.00;;;;;;5088136;28;19925;-66
2022/12/04 16:00:56;;;;;;;;;;;22.30;29.10;;;;;;5087879;28;20054;-66
2022/12/04 16:03:27;;;;;;;;;;;22.30;29.10;;;;;;5089067;28;20340;-66
2022/12/04 16:06:12;;;;;;;;;;;22.20;29.10;;;;;;5089058;28;19920;-66
2022/12/04 16:08:39;;;;;;;;;;;22.30;29.10;;;;;;5088763;28;19920;-66
2022/12/04 16:13:47;;;;;;;;;;;22.30;29.10;;;;;;5110222;27;19919;-66
2022/12/04 16:16:15;;;;;;;;;;;22.30;29.10;;;;;;5109280;28;20362;-67
2022/12/04 16:18:42;;;;;;;;;;;22.30;29.10;;;;;;5110144;28;19920;-66
2022/12/04 16:21:12;;;;;;;;;;;22.30;29.10;;;;;;5108270;28;19920;-67
2022/12/04 16:23:38;;;;;;;;;;;23.20;29.50;;;;;;5109056;28;19924;-66
2022/12/04 16:26:05;;;;;;;;;;;22.30;29.20;;;;;;5109057;28;19927;-66
2022/12/04 16:28:31;;;;;;;;;;;22.30;29.20;;;;;;5109994;28;20376;-65
2022/12/04 16:30:56;;;;;;;;;;;22.30;29.20;;;;;;5108683;28;19982;-65
2022/12/04 16:33:22;;;;;;;;;;;22.30;29.20;;;;;;5108444;28;19924;-66